createdAt,value
2018-05-31T00:02:21.206Z,75.08
2018-05-31T00:04:49.588Z,74.77
2018-05-31T00:07:17.934Z,74.69
2018-05-31T00:09:46.308Z,74.79
2018-05-31T00:12:15.442Z,74.80
2018-05-31T00:14:44.603Z,74.74
2018-05-31T00:17:13.383Z,74.62
2018-05-31T00:19:42.542Z,74.65
2018-05-31T00:22:11.683Z,74.81
2018-05-31T00:24:40.067Z,74.53
2018-05-31T00:27:08.423Z,74.47
2018-05-31T00:29:36.794Z,73.97
2018-05-31T00:32:05.131Z,73.68
2018-05-31T00:34:34.274Z,73.65
2018-05-31T00:37:02.671Z,73.70
2018-05-31T00:39:31.142Z,73.88
2018-05-31T00:41:59.531Z,73.99
2018-05-31T00:44:27.869Z,74.09
2018-05-31T00:46:56.271Z,74.14
2018-05-31T00:49:24.616Z,74.22
2018-05-31T00:51:53.770Z,74.18
2018-05-31T00:54:22.111Z,73.95
2018-05-31T00:56:50.499Z,73.98
2018-05-31T00:59:19.618Z,74.08
2018-05-31T01:01:47.967Z,74.17
2018-05-31T01:04:16.348Z,74.16
2018-05-31T01:06:44.699Z,74.21
2018-05-31T01:09:14.650Z,74.54
2018-05-31T01:11:42.988Z,74.61
2018-05-31T01:14:11.379Z,75.04
2018-05-31T01:16:39.781Z,74.72
2018-05-31T01:19:08.118Z,74.70
2018-05-31T01:21:37.262Z,74.88
2018-05-31T01:24:05.639Z,75.00
2018-05-31T01:26:34.111Z,74.87
2018-05-31T01:29:02.446Z,74.78
2018-05-31T01:31:31.545Z,74.67
2018-05-31T01:34:00.682Z,74.59
2018-05-31T01:36:29.041Z,74.51
2018-05-31T01:38:57.388Z,74.45
2018-05-31T01:41:26.551Z,74.35
2018-05-31T01:43:54.953Z,74.26
2018-05-31T01:46:24.060Z,74.42
2018-05-31T01:48:53.210Z,74.51
2018-05-31T01:51:21.570Z,74.56
2018-05-31T01:53:50.806Z,74.86
2018-05-31T01:56:19.206Z,75.04
2018-05-31T01:58:48.349Z,75.42
2018-05-31T02:01:16.681Z,75.23
2018-05-31T02:03:45.062Z,75.33
2018-05-31T02:06:14.234Z,75.55
2018-05-31T02:08:42.591Z,75.79
2018-05-31T02:11:10.964Z,76.06
2018-05-31T02:13:39.346Z,76.33
2018-05-31T02:16:07.698Z,76.69
2018-05-31T02:18:36.062Z,77.21
2018-05-31T02:21:04.454Z,77.22
2018-05-31T02:23:32.806Z,77.44
2018-05-31T02:26:01.951Z,77.60
2018-05-31T02:28:30.282Z,77.79
2018-05-31T02:30:59.421Z,78.30
2018-05-31T02:33:27.814Z,78.71
2018-05-31T02:35:56.197Z,78.70
2018-05-31T02:38:24.578Z,78.90
2018-05-31T02:40:52.913Z,79.20
2018-05-31T02:43:21.304Z,79.35
2018-05-31T02:45:49.686Z,79.97
2018-05-31T02:48:18.057Z,79.92
2018-05-31T02:50:47.147Z,79.76
2018-05-31T02:53:15.525Z,79.71
2018-05-31T02:55:43.886Z,79.67
2018-05-31T02:58:12.246Z,80.53
2018-05-31T03:00:41.390Z,80.07
2018-05-31T03:03:09.782Z,79.93
2018-05-31T03:05:38.161Z,79.96
2018-05-31T03:08:06.536Z,80.87
2018-05-31T03:10:35.115Z,81.08
2018-05-31T03:13:03.444Z,81.34
2018-05-31T03:15:32.593Z,81.53
2018-05-31T03:18:01.053Z,81.71
2018-05-31T03:20:29.435Z,81.60
2018-05-31T03:22:57.780Z,81.54
2018-05-31T03:25:26.888Z,81.08
2018-05-31T03:27:55.280Z,80.86
2018-05-31T03:30:23.668Z,80.43
2018-05-31T03:32:52.012Z,80.11
2018-05-31T03:35:20.412Z,79.49
2018-05-31T03:37:48.780Z,79.26
2018-05-31T03:40:17.141Z,79.39
2018-05-31T03:42:46.278Z,79.34
2018-05-31T03:45:14.658Z,79.08
2018-05-31T03:47:43.017Z,78.86
2018-05-31T03:50:11.419Z,78.76
2018-05-31T03:52:39.773Z,78.62
2018-05-31T03:55:08.133Z,78.56
2018-05-31T03:57:37.279Z,78.73
2018-05-31T04:00:05.633Z,79.37
2018-05-31T04:02:33.991Z,79.19
2018-05-31T04:05:02.345Z,79.07
2018-05-31T04:07:31.483Z,79.09
2018-05-31T04:09:59.828Z,78.94
2018-05-31T04:12:28.936Z,78.64
2018-05-31T04:14:58.077Z,78.31
2018-05-31T04:17:26.482Z,78.45
2018-05-31T04:19:54.868Z,78.29
2018-05-31T04:22:23.997Z,78.05
2018-05-31T04:24:52.373Z,77.67
2018-05-31T04:27:20.753Z,77.30
2018-05-31T04:29:49.844Z,76.73
2018-05-31T04:32:18.233Z,76.57
2018-05-31T04:34:47.388Z,76.16
2018-05-31T04:37:17.125Z,75.83
2018-05-31T04:39:46.233Z,75.69
2018-05-31T04:42:15.362Z,75.20
2018-05-31T04:44:43.836Z,74.39
2018-05-31T04:47:12.203Z,73.47
2018-05-31T04:49:40.585Z,73.22
2018-05-31T04:52:08.981Z,73.33
2018-05-31T04:54:37.336Z,73.35
2018-05-31T04:57:05.679Z,73.19
2018-05-31T04:59:34.051Z,72.84
2018-05-31T05:02:03.204Z,71.38
2018-05-31T05:04:31.576Z,71.17
2018-05-31T05:06:59.972Z,71.02
2018-05-31T05:09:28.307Z,70.25
2018-05-31T05:11:56.630Z,69.29
2018-05-31T05:14:25.073Z,68.98
2018-05-31T05:16:53.467Z,68.35
2018-05-31T05:19:21.856Z,67.56
2018-05-31T05:21:50.234Z,67.25
2018-05-31T05:24:18.571Z,66.39
2018-05-31T05:26:46.936Z,63.50
2018-05-31T05:29:16.205Z,63.77
2018-05-31T05:31:44.608Z,63.66
2018-05-31T05:34:13.738Z,63.32
2018-05-31T05:36:42.154Z,62.79
2018-05-31T05:39:10.511Z,60.63
2018-05-31T05:41:38.904Z,59.98
2018-05-31T05:44:07.246Z,60.47
2018-05-31T05:46:35.626Z,60.23
2018-05-31T05:49:04.005Z,60.89
2018-05-31T05:51:32.353Z,60.92
2018-05-31T05:54:00.733Z,60.08
2018-05-31T05:56:29.944Z,60.21
2018-05-31T05:58:58.266Z,60.02
2018-05-31T06:01:26.624Z,60.03
2018-05-31T06:03:55.011Z,60.32
2018-05-31T06:06:23.374Z,60.05
2018-05-31T06:08:51.763Z,59.99
2018-05-31T06:11:20.120Z,58.66
2018-05-31T06:13:48.520Z,58.87
2018-05-31T06:16:16.874Z,59.01
2018-05-31T06:18:45.228Z,58.88
2018-05-31T06:21:14.400Z,58.80
2018-05-31T06:23:42.742Z,58.39
2018-05-31T06:26:11.140Z,57.65
2018-05-31T06:28:39.484Z,57.81
2018-05-31T06:31:07.892Z,57.81
2018-05-31T06:33:36.274Z,57.54
2018-05-31T06:36:04.640Z,56.59
2018-05-31T06:38:32.992Z,56.65
2018-05-31T06:41:01.369Z,54.13
2018-05-31T06:43:30.856Z,55.16
2018-05-31T06:46:00.005Z,53.45
2018-05-31T06:48:28.347Z,53.41
2018-05-31T06:50:56.722Z,52.76
2018-05-31T06:53:25.812Z,52.91
2018-05-31T06:55:54.950Z,52.38
2018-05-31T06:58:23.268Z,49.46
2018-05-31T07:00:51.653Z,50.33
2018-05-31T07:03:20.748Z,52.14
2018-05-31T07:05:49.900Z,52.70
2018-05-31T07:08:18.620Z,52.40
2018-05-31T07:10:46.992Z,51.35
2018-05-31T07:13:15.365Z,50.44
2018-05-31T07:15:44.103Z,51.15
2018-05-31T07:18:12.471Z,48.77
2018-05-31T07:20:40.870Z,50.08
2018-05-31T07:23:09.256Z,48.64
2018-05-31T07:25:37.553Z,49.66
2018-05-31T07:28:05.884Z,50.16
2018-05-31T07:30:34.268Z,50.40
2018-05-31T07:33:02.590Z,48.80
2018-05-31T07:35:30.935Z,49.36
2018-05-31T07:37:59.291Z,49.43
2018-05-31T07:40:27.665Z,49.51
2018-05-31T07:42:55.999Z,48.19
2018-05-31T07:45:24.319Z,48.61
2018-05-31T07:47:53.437Z,48.83
2018-05-31T07:50:21.779Z,48.71
2018-05-31T07:52:50.906Z,48.92
2018-05-31T07:55:19.218Z,49.00
2018-05-31T07:57:47.571Z,45.36
2018-05-31T08:00:15.932Z,47.69
2018-05-31T08:02:44.289Z,48.11
2018-05-31T08:05:13.422Z,47.72
2018-05-31T08:07:41.747Z,47.14
2018-05-31T08:10:10.071Z,47.72
2018-05-31T08:12:38.463Z,47.43
2018-05-31T08:15:06.803Z,47.17
2018-05-31T08:17:35.894Z,47.31
2018-05-31T08:20:05.631Z,45.28
2018-05-31T08:22:34.005Z,45.98
2018-05-31T08:25:02.324Z,46.76
2018-05-31T08:27:30.673Z,46.74
2018-05-31T08:29:59.047Z,46.64
2018-05-31T08:32:27.415Z,46.56
2018-05-31T08:34:55.740Z,46.30
2018-05-31T08:37:24.101Z,45.90
2018-05-31T08:39:52.407Z,46.06
2018-05-31T08:42:20.782Z,45.67
2018-05-31T08:44:49.111Z,45.51
2018-05-31T08:47:17.421Z,45.59
2018-05-31T08:49:45.784Z,45.90
2018-05-31T08:52:14.150Z,45.82
2018-05-31T08:54:42.474Z,45.51
2018-05-31T08:57:10.852Z,45.19
2018-05-31T08:59:39.955Z,42.68
2018-05-31T09:02:09.107Z,43.45
2018-05-31T09:04:37.440Z,41.84
2018-05-31T09:07:06.555Z,41.48
2018-05-31T09:09:34.931Z,42.31
2018-05-31T09:12:03.993Z,40.64
2018-05-31T09:14:33.147Z,40.75
2018-05-31T09:17:01.609Z,40.35
2018-05-31T09:19:29.971Z,40.38
2018-05-31T09:21:58.296Z,39.67
2018-05-31T09:24:26.651Z,41.29
2018-05-31T09:26:54.999Z,43.20
2018-05-31T09:29:23.478Z,43.40
2018-05-31T09:31:51.822Z,42.87
2018-05-31T09:34:20.175Z,42.60
2018-05-31T09:36:48.551Z,43.26
2018-05-31T09:39:16.890Z,43.44
2018-05-31T09:41:45.242Z,42.85
2018-05-31T09:44:13.585Z,42.56
2018-05-31T09:46:41.974Z,42.07
2018-05-31T09:49:10.346Z,42.39
2018-05-31T09:51:38.732Z,42.19
2018-05-31T09:54:07.062Z,39.89
2018-05-31T09:56:35.446Z,39.32
2018-05-31T09:59:03.758Z,40.59
2018-05-31T10:01:32.083Z,41.58
2018-05-31T10:04:00.450Z,42.03
2018-05-31T10:06:29.556Z,41.33
2018-05-31T10:08:58.690Z,41.66
2018-05-31T10:11:27.062Z,41.31
2018-05-31T10:13:55.454Z,41.27
2018-05-31T10:16:23.790Z,41.50
2018-05-31T10:18:52.134Z,41.72
2018-05-31T10:21:20.491Z,41.37
2018-05-31T10:23:48.824Z,41.46
2018-05-31T10:26:17.189Z,38.13
2018-05-31T10:28:45.504Z,40.83
2018-05-31T10:31:13.866Z,41.47
2018-05-31T10:33:42.206Z,40.33
2018-05-31T10:36:10.544Z,40.80
2018-05-31T10:38:38.856Z,41.33
2018-05-31T10:41:07.228Z,41.82
2018-05-31T10:43:35.596Z,41.97
2018-05-31T10:46:03.922Z,42.00
2018-05-31T10:48:32.285Z,41.91
2018-05-31T10:51:00.597Z,41.53
2018-05-31T10:53:28.948Z,38.15
2018-05-31T10:55:58.445Z,39.30
2018-05-31T10:58:27.582Z,39.35
2018-05-31T11:00:55.964Z,37.95
2018-05-31T11:03:24.324Z,38.96
2018-05-31T11:05:52.686Z,39.53
2018-05-31T11:08:21.119Z,38.46
2018-05-31T11:10:49.490Z,37.39
2018-05-31T11:13:17.829Z,37.94
2018-05-31T11:15:46.305Z,38.39
2018-05-31T11:18:14.699Z,38.38
2018-05-31T11:20:43.075Z,38.76
2018-05-31T11:23:11.438Z,39.64
2018-05-31T11:25:39.947Z,38.91
2018-05-31T11:28:08.286Z,39.72
2018-05-31T11:30:37.381Z,39.82
2018-05-31T11:33:06.550Z,39.81
2018-05-31T11:35:34.950Z,39.23
2018-05-31T11:38:04.326Z,38.65
2018-05-31T11:40:32.716Z,38.20
2018-05-31T11:43:01.121Z,37.66
2018-05-31T11:45:29.494Z,36.44
2018-05-31T11:47:58.662Z,37.27
2018-05-31T11:50:27.002Z,38.03
2018-05-31T11:52:55.378Z,35.99
2018-05-31T11:55:23.720Z,36.59
2018-05-31T11:57:52.862Z,36.73
2018-05-31T12:00:21.212Z,38.27
2018-05-31T12:02:49.560Z,37.32
2018-05-31T12:05:18.668Z,38.62
2018-05-31T12:07:47.027Z,37.81
2018-05-31T12:10:15.400Z,36.20
2018-05-31T12:12:43.765Z,36.14
2018-05-31T12:15:12.214Z,36.51
2018-05-31T12:17:40.626Z,36.71
2018-05-31T12:20:08.972Z,36.85
2018-05-31T12:22:37.360Z,37.05
2018-05-31T12:25:05.716Z,36.73
2018-05-31T12:27:34.071Z,36.58
2018-05-31T12:30:03.258Z,35.61
2018-05-31T12:32:32.429Z,36.26
2018-05-31T12:35:00.806Z,36.49
2018-05-31T12:37:29.184Z,36.44
2018-05-31T12:39:57.528Z,33.67
2018-05-31T12:42:25.895Z,35.37
2018-05-31T12:44:54.261Z,33.54
2018-05-31T12:47:22.672Z,32.88
2018-05-31T12:49:51.045Z,32.69
2018-05-31T12:52:19.446Z,32.31
2018-05-31T12:54:47.827Z,31.83
2018-05-31T12:57:16.229Z,32.21
2018-05-31T12:59:44.573Z,33.59
2018-05-31T13:02:12.961Z,33.77
2018-05-31T13:04:41.301Z,33.66
2018-05-31T13:07:09.680Z,32.23
2018-05-31T13:09:38.009Z,32.68
2018-05-31T13:12:06.345Z,33.37
2018-05-31T13:14:34.706Z,33.48
2018-05-31T13:17:03.086Z,33.25
2018-05-31T13:19:31.452Z,34.01
2018-05-31T13:21:59.775Z,34.45
2018-05-31T13:24:28.121Z,35.61
2018-05-31T13:26:56.493Z,35.78
2018-05-31T13:29:24.914Z,33.85
2018-05-31T13:31:53.238Z,33.06
2018-05-31T13:34:22.358Z,34.24
2018-05-31T13:36:50.722Z,34.14
2018-05-31T13:39:19.095Z,34.91
2018-05-31T13:41:47.435Z,34.45
2018-05-31T13:44:15.780Z,33.18
2018-05-31T13:46:44.160Z,33.33
2018-05-31T13:49:12.505Z,33.09
2018-05-31T13:51:40.884Z,31.86
2018-05-31T13:54:09.248Z,32.63
2018-05-31T13:56:38.383Z,32.28
2018-05-31T13:59:06.736Z,32.83
2018-05-31T14:01:35.895Z,33.13
2018-05-31T14:04:04.258Z,32.64
2018-05-31T14:06:32.769Z,32.01
2018-05-31T14:09:01.236Z,31.53
2018-05-31T14:11:29.593Z,31.37
2018-05-31T14:13:57.947Z,31.24
2018-05-31T14:16:26.333Z,30.63
2018-05-31T14:18:54.670Z,29.08
2018-05-31T14:21:23.755Z,27.78
2018-05-31T14:23:52.118Z,27.71
2018-05-31T14:26:20.532Z,27.42
2018-05-31T14:28:48.919Z,27.25
2018-05-31T14:31:17.304Z,27.60
2018-05-31T14:33:45.712Z,27.80
2018-05-31T14:36:14.293Z,28.39
2018-05-31T14:38:42.688Z,29.24
2018-05-31T14:41:11.188Z,30.19
2018-05-31T14:46:08.012Z,33.86
2018-05-31T14:48:36.577Z,34.39
2018-05-31T14:51:05.017Z,34.44
2018-05-31T14:53:35.353Z,34.66
2018-05-31T14:56:04.552Z,34.56
2018-05-31T14:58:32.948Z,34.36
2018-05-31T15:01:01.371Z,34.74
2018-05-31T15:03:29.754Z,33.91
2018-05-31T15:05:58.109Z,33.09
2018-05-31T15:08:26.590Z,32.83
2018-05-31T15:10:54.938Z,31.84
2018-05-31T15:13:23.342Z,32.34
2018-05-31T15:15:51.696Z,33.39
2018-05-31T15:18:20.136Z,31.71
2018-05-31T15:20:48.518Z,32.05
2018-05-31T15:23:16.856Z,31.62
2018-05-31T15:25:45.255Z,33.33
2018-05-31T15:28:13.714Z,33.45
2018-05-31T15:30:42.092Z,33.93
2018-05-31T15:33:11.182Z,30.43
2018-05-31T15:35:39.556Z,33.00
2018-05-31T15:38:09.150Z,33.85
2018-05-31T15:40:37.502Z,34.49
2018-05-31T15:43:06.608Z,34.89
2018-05-31T15:45:35.748Z,35.53
2018-05-31T15:48:04.082Z,34.11
2018-05-31T15:50:32.434Z,33.22
2018-05-31T15:53:00.807Z,32.52
2018-05-31T15:55:29.186Z,32.79
2018-05-31T15:57:57.532Z,32.08
2018-05-31T16:00:25.878Z,31.66
2018-05-31T16:02:54.243Z,31.83
2018-05-31T16:05:23.403Z,29.99
2018-05-31T16:07:51.778Z,31.37
2018-05-31T16:10:20.135Z,32.61
2018-05-31T16:12:52.474Z,33.89
2018-05-31T16:15:20.868Z,33.06
2018-05-31T16:17:49.266Z,31.70
2018-05-31T16:20:17.680Z,30.58
2018-05-31T16:22:46.938Z,30.48
2018-05-31T16:25:15.344Z,30.61
2018-05-31T16:27:43.800Z,30.49
2018-05-31T16:30:12.190Z,30.42
2018-05-31T16:32:40.642Z,30.49
2018-05-31T16:35:09.885Z,30.27
2018-05-31T16:37:38.247Z,30.37
2018-05-31T16:40:06.723Z,30.28
2018-05-31T16:42:35.217Z,30.32
2018-05-31T16:45:03.649Z,30.19
2018-05-31T16:47:32.032Z,30.00
2018-05-31T16:50:00.395Z,30.04
2018-05-31T16:52:28.835Z,29.70
2018-05-31T16:54:57.487Z,29.54
2018-05-31T16:57:26.319Z,29.37
2018-05-31T16:59:54.693Z,29.08
2018-05-31T17:02:23.067Z,29.03
2018-05-31T17:04:51.530Z,28.60
2018-05-31T17:07:19.976Z,28.24
2018-05-31T17:09:48.356Z,28.04
2018-05-31T17:12:17.571Z,27.09
2018-05-31T17:14:46.132Z,28.18
2018-05-31T17:17:14.585Z,28.38
2018-05-31T17:19:43.766Z,28.25
2018-05-31T17:22:12.293Z,28.30
2018-05-31T17:24:40.757Z,27.97
2018-05-31T17:27:09.123Z,27.48
2018-05-31T17:29:39.379Z,27.87
2018-05-31T17:32:07.957Z,29.34
2018-05-31T17:34:36.336Z,29.78
2018-05-31T17:37:04.911Z,30.34
2018-05-31T17:39:34.545Z,30.80
2018-05-31T17:42:03.041Z,31.16
2018-05-31T17:44:35.279Z,31.84
2018-05-31T17:47:03.670Z,32.28
2018-05-31T17:49:32.107Z,32.60
2018-05-31T17:52:00.559Z,33.46
2018-05-31T17:54:28.966Z,33.79
2018-05-31T17:56:58.115Z,33.77
2018-05-31T17:59:27.590Z,34.02
2018-05-31T18:01:56.099Z,34.10
2018-05-31T18:04:24.537Z,34.28
2018-05-31T18:06:52.925Z,34.40
2018-05-31T18:09:21.283Z,34.52
2018-05-31T18:11:50.442Z,34.19
2018-05-31T18:14:19.027Z,34.75
2018-05-31T18:16:47.532Z,34.81
2018-05-31T18:19:15.968Z,35.08
2018-05-31T18:21:44.437Z,35.38
2018-05-31T18:24:12.862Z,35.87
2018-05-31T18:26:43.280Z,36.22
2018-05-31T18:29:11.680Z,36.13
2018-05-31T18:31:40.235Z,36.80
2018-05-31T18:34:10.188Z,36.44
2018-05-31T18:36:38.783Z,36.38
2018-05-31T18:39:07.946Z,38.92
2018-05-31T18:41:36.367Z,38.88
2018-05-31T18:44:04.773Z,38.17
2018-05-31T18:46:33.142Z,40.19
2018-05-31T18:49:02.306Z,38.60
2018-05-31T18:51:31.896Z,38.71
2018-05-31T18:54:01.070Z,39.09
2018-05-31T18:56:29.455Z,39.58
2018-05-31T18:58:57.938Z,39.97
2018-05-31T19:01:27.166Z,40.62
2018-05-31T19:03:55.907Z,41.42
2018-05-31T19:06:24.582Z,41.76
2018-05-31T19:08:53.010Z,42.28
2018-05-31T19:11:22.373Z,42.76
2018-05-31T19:13:56.538Z,43.27
2018-05-31T19:16:25.029Z,43.34
2018-05-31T19:18:59.342Z,43.66
2018-05-31T19:21:28.770Z,43.99
2018-05-31T19:23:57.241Z,44.08
2018-05-31T19:26:25.785Z,44.31
2018-05-31T19:28:55.121Z,43.88
2018-05-31T19:31:24.773Z,43.79
2018-05-31T19:33:55.262Z,44.01
2018-05-31T19:36:29.391Z,44.22
2018-05-31T19:38:57.870Z,44.22
2018-05-31T19:41:27.008Z,44.62
2018-05-31T19:47:02.971Z,45.27
2018-05-31T19:49:32.478Z,45.22
2018-05-31T19:52:06.476Z,45.87
2018-05-31T19:54:34.871Z,46.24
2018-05-31T19:57:04.617Z,45.96
2018-05-31T19:59:38.578Z,45.69
2018-05-31T20:02:12.842Z,46.37
2018-05-31T20:04:41.910Z,46.61
2018-05-31T20:07:11.059Z,46.86
2018-05-31T20:09:39.426Z,47.03
2018-05-31T20:12:07.802Z,46.95
2018-05-31T20:14:36.126Z,47.00
2018-05-31T20:17:04.513Z,47.16
2018-05-31T20:19:33.733Z,47.08
2018-05-31T20:22:02.854Z,48.45
2018-05-31T20:24:31.225Z,48.76
2018-05-31T20:26:59.593Z,48.60
2018-05-31T20:29:27.988Z,49.56
2018-05-31T20:31:56.364Z,48.90
2018-05-31T20:34:24.747Z,49.21
2018-05-31T20:36:53.086Z,49.31
2018-05-31T20:39:22.241Z,49.04
2018-05-31T20:41:50.595Z,49.33
2018-05-31T20:44:18.956Z,49.56
2018-05-31T20:46:47.285Z,49.24
2018-05-31T20:49:16.032Z,49.23
2018-05-31T20:51:44.876Z,49.73
2018-05-31T20:54:13.990Z,50.19
2018-05-31T20:56:42.735Z,50.39
2018-05-31T20:59:11.124Z,50.36
2018-05-31T21:01:39.448Z,50.36
2018-05-31T21:04:07.777Z,50.62
2018-05-31T21:06:36.123Z,51.03
2018-05-31T21:09:04.486Z,51.04
2018-05-31T21:11:32.853Z,51.28
2018-05-31T21:14:01.190Z,50.54
2018-05-31T21:16:29.552Z,50.19
2018-05-31T21:18:58.330Z,50.67
2018-05-31T21:21:26.681Z,51.11
2018-05-31T21:23:55.037Z,51.63
2018-05-31T21:26:24.147Z,52.33
2018-05-31T21:28:52.533Z,52.33
2018-05-31T21:31:21.001Z,52.19
2018-05-31T21:33:49.335Z,52.60
2018-05-31T21:36:17.799Z,52.25
2018-05-31T21:38:46.176Z,51.85
2018-05-31T21:41:14.558Z,52.59
2018-05-31T21:43:42.831Z,52.75
2018-05-31T21:46:11.205Z,53.48
2018-05-31T21:48:39.561Z,52.46
2018-05-31T21:51:07.929Z,52.75
2018-05-31T21:53:36.265Z,53.29
2018-05-31T21:56:04.615Z,53.18
2018-05-31T21:58:33.001Z,53.06
2018-05-31T22:01:01.463Z,53.23
2018-05-31T22:03:29.821Z,53.15
2018-05-31T22:05:58.620Z,53.65
2018-05-31T22:08:27.016Z,52.89
2018-05-31T22:10:55.406Z,52.76
2018-05-31T22:13:23.792Z,52.90
2018-05-31T22:15:52.157Z,52.89
2018-05-31T22:18:20.617Z,52.96
2018-05-31T22:20:49.733Z,53.13
2018-05-31T22:23:18.076Z,53.81
2018-05-31T22:25:46.456Z,53.69
2018-05-31T22:28:14.828Z,53.89
2018-05-31T22:30:43.241Z,53.83
2018-05-31T22:33:11.592Z,54.16
2018-05-31T22:36:03.312Z,54.30
2018-05-31T22:38:31.664Z,54.47
2018-05-31T22:41:00.040Z,53.99
2018-05-31T22:43:28.417Z,54.24
2018-05-31T22:45:56.811Z,54.54
2018-05-31T22:48:25.937Z,54.97
2018-05-31T22:50:54.306Z,54.94
2018-05-31T22:53:22.647Z,55.09
2018-05-31T22:55:51.013Z,54.96
2018-05-31T22:58:19.385Z,54.73
2018-05-31T23:00:47.714Z,55.01
2018-05-31T23:03:16.086Z,54.89
2018-05-31T23:05:44.408Z,54.88
2018-05-31T23:08:12.748Z,54.56
2018-05-31T23:10:41.115Z,54.51
2018-05-31T23:13:09.466Z,54.99
2018-05-31T23:15:37.856Z,55.25
2018-05-31T23:18:06.958Z,55.15
2018-05-31T23:20:36.200Z,54.93
2018-05-31T23:23:04.555Z,55.34
2018-05-31T23:25:32.866Z,55.38
2018-05-31T23:28:01.212Z,55.80
2018-05-31T23:30:29.635Z,55.54
2018-05-31T23:32:57.963Z,55.70
2018-05-31T23:35:26.407Z,56.13
2018-05-31T23:37:55.289Z,55.88
2018-05-31T23:40:23.622Z,56.32
2018-05-31T23:42:51.957Z,56.26
2018-05-31T23:45:21.111Z,56.16
2018-05-31T23:47:49.503Z,56.63
2018-05-31T23:50:17.878Z,56.10
2018-05-31T23:52:46.197Z,55.61
2018-05-31T23:55:15.330Z,56.18
2018-05-31T23:57:44.851Z,56.53
